createdAt,value
2019-01-23T00:00:45.903Z,8.48
2019-01-23T00:03:13.451Z,9.15
2019-01-23T00:05:41.012Z,9.30
2019-01-23T00:08:08.556Z,9.13
2019-01-23T00:10:36.409Z,8.83
2019-01-23T00:13:03.995Z,7.85
2019-01-23T00:15:31.532Z,8.30
2019-01-23T00:17:59.102Z,7.60
2019-01-23T00:20:26.659Z,7.62
2019-01-23T00:22:54.224Z,8.68
2019-01-23T00:25:21.770Z,7.60
2019-01-23T00:27:49.315Z,8.00
2019-01-23T00:30:17.885Z,7.57
2019-01-23T00:32:45.455Z,8.15
2019-01-23T00:35:13.035Z,8.18
2019-01-23T00:37:40.583Z,9.23
2019-01-23T00:40:08.898Z,9.90
2019-01-23T00:42:37.231Z,9.93
2019-01-23T00:45:04.781Z,9.05
2019-01-23T00:47:32.347Z,9.90
2019-01-23T00:49:59.915Z,9.90
2019-01-23T00:52:27.470Z,11.27
2019-01-23T00:54:55.055Z,11.27
2019-01-23T00:57:22.630Z,14.37
2019-01-23T00:59:50.175Z,12.88
2019-01-23T01:02:17.744Z,12.03
2019-01-23T01:04:45.295Z,11.43
2019-01-23T01:07:13.609Z,11.10
2019-01-23T01:09:41.191Z,10.82
2019-01-23T01:12:08.807Z,10.57
2019-01-23T01:14:36.350Z,10.48
2019-01-23T01:17:04.683Z,9.73
2019-01-23T01:19:32.229Z,9.68
2019-01-23T01:21:59.769Z,9.40
2019-01-23T01:24:27.343Z,9.10
2019-01-23T01:26:54.888Z,9.13
2019-01-23T01:29:22.468Z,9.50
2019-01-23T01:31:50.019Z,9.35
2019-01-23T01:34:18.581Z,8.90
2019-01-23T01:36:46.148Z,8.60
2019-01-23T01:39:13.723Z,9.20
2019-01-23T01:41:41.264Z,8.60
2019-01-23T01:44:08.847Z,8.95
2019-01-23T01:46:36.419Z,10.23
2019-01-23T01:49:03.961Z,8.25
2019-01-23T01:51:31.528Z,7.37
2019-01-23T01:53:59.844Z,8.50
2019-01-23T01:56:27.412Z,7.90
2019-01-23T01:58:54.996Z,7.62
2019-01-23T02:01:22.563Z,9.00
2019-01-23T02:03:50.144Z,7.20
2019-01-23T02:06:17.680Z,8.60
2019-01-23T02:08:45.256Z,7.85
2019-01-23T02:11:13.568Z,8.67
2019-01-23T02:13:41.139Z,9.20
2019-01-23T02:16:08.781Z,10.27
2019-01-23T02:18:36.355Z,10.13
2019-01-23T02:21:03.898Z,9.90
2019-01-23T04:07:29.737Z,8.20
2019-01-23T04:09:57.289Z,9.73
2019-01-23T04:12:24.868Z,8.20
2019-01-23T04:14:52.412Z,8.60
2019-01-23T04:17:19.964Z,8.87
2019-01-23T04:19:47.544Z,8.77
2019-01-23T04:22:15.099Z,9.13
2019-01-23T04:24:42.640Z,8.90
2019-01-23T04:27:10.212Z,8.73
2019-01-23T04:29:39.733Z,8.20
2019-01-23T04:32:06.148Z,8.90
2019-01-23T04:34:33.708Z,8.40
2019-01-23T04:37:01.277Z,8.60
2019-01-23T04:39:28.824Z,8.57
2019-01-23T04:41:56.382Z,9.43
2019-01-23T04:44:23.952Z,8.23
2019-01-23T04:46:51.492Z,8.80
2019-01-23T04:49:20.083Z,9.40
2019-01-23T04:51:48.291Z,9.13
2019-01-23T04:54:16.609Z,9.30
2019-01-23T04:56:44.187Z,11.20
2019-01-23T04:59:11.740Z,10.47
2019-01-23T05:01:39.309Z,9.63
2019-01-23T05:04:06.888Z,10.40
2019-01-23T05:06:34.440Z,11.63
2019-01-23T05:09:02.014Z,12.57
2019-01-23T05:11:29.580Z,11.37
2019-01-23T05:13:57.133Z,11.87
2019-01-23T05:16:24.724Z,11.07
2019-01-23T05:18:52.276Z,11.60
2019-01-23T05:21:19.912Z,11.23
2019-01-23T05:23:47.459Z,12.00
2019-01-23T05:26:15.008Z,12.13
2019-01-23T05:28:42.589Z,10.63
2019-01-23T05:31:10.140Z,12.10
2019-01-23T05:33:37.713Z,11.30
2019-01-23T05:36:05.265Z,11.43
2019-01-23T05:38:32.837Z,10.20
2019-01-23T05:41:00.380Z,10.80
2019-01-23T05:43:27.945Z,10.63
2019-01-23T05:45:55.524Z,12.00
2019-01-23T05:48:23.069Z,11.27
2019-01-23T05:50:51.612Z,13.73
2019-01-23T05:53:19.311Z,12.90
2019-01-23T05:55:46.900Z,14.37
2019-01-23T05:58:14.452Z,14.40
2019-01-23T06:00:41.991Z,11.23
2019-01-23T06:03:10.534Z,14.70
2019-01-23T06:05:38.084Z,14.23
2019-01-23T06:08:06.427Z,25.53
2019-01-23T06:10:33.980Z,15.60
2019-01-23T06:13:01.556Z,14.10
2019-01-23T06:15:29.120Z,13.33
2019-01-23T06:17:57.459Z,13.20
2019-01-23T06:22:58.848Z,13.10
2019-01-23T06:25:26.429Z,14.20
2019-01-23T06:27:53.994Z,13.77
2019-01-23T06:30:22.468Z,13.03
2019-01-23T06:32:51.836Z,12.50
2019-01-23T06:35:19.416Z,13.17
2019-01-23T06:37:47.000Z,12.30
2019-01-23T06:40:15.389Z,12.50
2019-01-23T06:42:42.940Z,12.67
2019-01-23T06:45:10.610Z,11.57
2019-01-23T06:47:38.167Z,11.00
2019-01-23T06:50:05.723Z,24.30
2019-01-23T06:52:33.300Z,13.80
2019-01-23T06:55:00.841Z,16.27
2019-01-23T06:57:28.414Z,14.13
2019-01-23T06:59:55.971Z,13.97
2019-01-23T07:02:23.548Z,13.70
2019-01-23T07:04:51.097Z,14.80
2019-01-23T07:07:18.639Z,14.30
2019-01-23T07:09:46.296Z,13.23
2019-01-23T07:12:13.879Z,12.63
2019-01-23T07:14:41.455Z,12.50
2019-01-23T07:17:09.000Z,13.27
2019-01-23T07:19:36.580Z,16.10
2019-01-23T07:22:04.128Z,15.07
2019-01-23T07:24:31.711Z,12.23
2019-01-23T07:26:59.267Z,12.97
2019-01-23T07:29:26.844Z,13.70
2019-01-23T07:31:54.404Z,12.97
2019-01-23T07:34:21.958Z,11.87
2019-01-23T07:36:49.540Z,12.10
2019-01-23T07:39:17.111Z,12.00
2019-01-23T07:41:44.660Z,13.03
2019-01-23T07:44:12.218Z,12.73
2019-01-23T07:46:39.804Z,11.63
2019-01-23T07:49:07.403Z,14.30
2019-01-23T07:51:34.972Z,11.53
2019-01-23T07:54:02.515Z,12.33
2019-01-23T07:56:30.088Z,11.17
2019-01-23T07:58:57.671Z,11.10
2019-01-23T08:01:25.216Z,12.20
2019-01-23T08:03:52.766Z,15.20
2019-01-23T08:06:20.345Z,14.80
2019-01-23T08:08:48.651Z,12.50
2019-01-23T08:11:17.975Z,10.97
2019-01-23T08:13:45.534Z,11.90
2019-01-23T08:16:13.116Z,13.20
2019-01-23T08:18:40.669Z,16.90
2019-01-23T08:21:08.245Z,27.70
2019-01-23T08:23:36.792Z,16.40
2019-01-23T08:26:04.369Z,15.03
2019-01-23T08:28:31.960Z,13.80
2019-01-23T08:30:59.507Z,13.70
2019-01-23T08:33:27.081Z,14.90
2019-01-23T08:35:54.633Z,15.23
2019-01-23T08:38:22.208Z,17.87
2019-01-23T08:40:49.777Z,30.70
2019-01-23T08:43:17.358Z,26.90
2019-01-23T08:45:44.914Z,17.23
2019-01-23T08:48:12.464Z,26.40
2019-01-23T08:50:40.039Z,34.77
2019-01-23T08:53:07.586Z,17.87
2019-01-23T08:55:35.161Z,18.43
2019-01-23T08:58:02.736Z,37.80
2019-01-23T09:00:30.293Z,37.80
2019-01-23T09:02:57.844Z,22.17
2019-01-23T09:05:25.415Z,19.63
2019-01-23T09:07:52.961Z,18.20
2019-01-23T09:10:21.224Z,17.67
2019-01-23T09:12:48.795Z,19.37
2019-01-23T09:15:16.354Z,21.87
2019-01-23T09:17:44.920Z,20.07
2019-01-23T09:20:13.656Z,21.30
2019-01-23T09:22:42.207Z,19.90
2019-01-23T09:25:09.756Z,21.70
2019-01-23T09:27:37.319Z,20.93
2019-01-23T09:33:18.757Z,19.02
2019-01-23T09:36:16.842Z,19.53
2019-01-23T09:38:57.072Z,17.90
2019-01-23T09:41:28.108Z,17.90
2019-01-23T09:44:17.541Z,17.00
2019-01-23T09:46:58.541Z,16.73
2019-01-23T09:49:26.112Z,16.03
2019-01-23T09:51:59.544Z,16.60
2019-01-23T09:54:27.144Z,17.17
2019-01-23T09:56:54.688Z,18.70
2019-01-23T09:59:22.228Z,18.33
2019-01-23T10:01:49.795Z,17.40
2019-01-23T10:04:17.347Z,17.37
2019-01-23T10:06:44.924Z,18.50
2019-01-23T10:09:12.467Z,17.70
2019-01-23T10:11:40.009Z,19.00
2019-01-23T10:14:07.584Z,17.73
2019-01-23T10:16:35.124Z,19.27
2019-01-23T10:19:02.696Z,19.80
2019-01-23T10:21:30.240Z,17.03
2019-01-23T10:23:57.784Z,17.50
2019-01-23T10:26:25.457Z,18.70
2019-01-23T10:28:53.000Z,17.70
2019-01-23T10:31:20.563Z,18.37
2019-01-23T10:33:48.105Z,17.27
2019-01-23T10:36:15.673Z,17.93
2019-01-23T10:38:43.248Z,17.90
2019-01-23T10:41:10.789Z,18.67
2019-01-23T10:43:38.332Z,19.07
2019-01-23T10:46:06.118Z,18.70
2019-01-23T10:48:37.965Z,19.37
2019-01-23T10:51:01.292Z,19.57
2019-01-23T10:53:29.637Z,19.20
2019-01-23T10:55:57.185Z,18.77
2019-01-23T10:58:24.759Z,18.80
2019-01-23T11:00:52.300Z,19.83
2019-01-23T11:03:19.848Z,21.30
2019-01-23T11:05:47.900Z,20.07
2019-01-23T11:08:15.455Z,20.37
2019-01-23T11:10:43.021Z,20.47
2019-01-23T11:13:10.576Z,21.43
2019-01-23T11:15:38.164Z,22.37
2019-01-23T11:18:05.736Z,20.07
2019-01-23T11:20:33.285Z,19.80
2019-01-23T11:23:00.873Z,19.57
2019-01-23T11:25:28.459Z,16.93
2019-01-23T11:27:56.034Z,17.40
2019-01-23T11:30:23.587Z,17.77
2019-01-23T11:32:51.160Z,18.70
2019-01-23T11:35:18.711Z,16.87
2019-01-23T11:37:46.281Z,20.33
2019-01-23T11:40:23.097Z,18.63
2019-01-23T11:42:50.648Z,17.70
2019-01-23T11:45:18.192Z,16.93
2019-01-23T11:47:45.762Z,17.57
2019-01-23T11:50:13.300Z,17.33
2019-01-23T11:52:40.863Z,16.60
2019-01-23T11:55:08.408Z,16.63
2019-01-23T11:57:36.992Z,17.17
2019-01-23T12:00:07.302Z,17.47
2019-01-23T12:02:34.848Z,16.63
2019-01-23T12:05:03.409Z,17.67
2019-01-23T12:07:30.952Z,18.70
2019-01-23T12:09:59.511Z,16.90
2019-01-23T12:12:27.824Z,16.40
2019-01-23T12:14:55.392Z,16.20
2019-01-23T12:17:22.936Z,14.33
2019-01-23T12:19:50.504Z,16.60
2019-01-23T12:22:18.083Z,17.50
2019-01-23T12:24:45.651Z,18.30
2019-01-23T12:27:13.197Z,22.50
2019-01-23T12:29:40.740Z,22.90
2019-01-23T12:32:08.308Z,23.57
2019-01-23T12:34:35.868Z,22.83
2019-01-23T12:37:03.435Z,23.40
2019-01-23T12:39:31.012Z,24.70
2019-01-23T12:41:58.560Z,24.77
2019-01-23T12:44:26.131Z,28.60
2019-01-23T12:46:53.708Z,26.63
2019-01-23T12:49:21.248Z,26.30
2019-01-23T12:51:49.583Z,27.33
2019-01-23T12:54:17.161Z,28.70
2019-01-23T12:56:44.702Z,29.27
2019-01-23T12:59:12.271Z,28.80
2019-01-23T13:01:42.086Z,31.50
2019-01-23T13:04:07.438Z,28.83
2019-01-23T13:06:34.980Z,29.43
2019-01-23T13:09:03.316Z,36.23
2019-01-23T13:11:30.863Z,30.50
2019-01-23T13:13:59.386Z,28.77
2019-01-23T13:16:26.931Z,30.67
2019-01-23T13:18:55.280Z,30.40
2019-01-23T13:21:22.848Z,32.97
2019-01-23T13:23:50.393Z,31.70
2019-01-23T13:26:17.961Z,34.20
2019-01-23T13:28:45.751Z,31.23
2019-01-23T13:31:15.084Z,31.33
2019-01-23T13:33:42.632Z,30.60
2019-01-23T13:36:10.217Z,32.97
2019-01-23T13:38:37.796Z,32.57
2019-01-23T13:41:05.336Z,38.10
2019-01-23T13:43:32.901Z,31.00
2019-01-23T13:46:00.448Z,36.80
2019-01-23T13:48:28.019Z,29.00
2019-01-23T13:50:55.584Z,30.53
2019-01-23T13:53:23.130Z,33.20
2019-01-23T13:55:50.700Z,31.53
2019-01-23T13:58:19.012Z,34.07
2019-01-23T14:00:46.588Z,30.67
2019-01-23T14:03:14.135Z,28.40
2019-01-23T14:05:41.720Z,30.20
2019-01-23T14:08:09.272Z,29.03
2019-01-23T14:10:36.870Z,30.40
2019-01-23T14:13:04.441Z,29.77
2019-01-23T14:15:37.385Z,30.53
2019-01-23T14:18:04.953Z,29.60
2019-01-23T14:20:32.500Z,28.93
2019-01-23T14:23:01.073Z,28.10
2019-01-23T14:25:28.630Z,27.70
2019-01-23T14:27:56.182Z,28.87
2019-01-23T14:30:24.573Z,26.90
2019-01-23T14:32:52.132Z,25.87
2019-01-23T14:35:19.717Z,25.50
2019-01-23T14:37:47.283Z,23.90
2019-01-23T14:40:15.115Z,29.47
2019-01-23T14:42:42.692Z,28.40
2019-01-23T14:45:10.244Z,24.27
2019-01-23T14:47:37.822Z,23.23
2019-01-23T14:50:06.944Z,24.03
2019-01-23T14:52:34.521Z,22.03
2019-01-23T14:55:02.077Z,21.40
2019-01-23T14:57:29.768Z,24.03
2019-01-23T14:59:57.344Z,23.57
2019-01-23T15:02:24.901Z,23.73
2019-01-23T15:04:52.485Z,27.60
2019-01-23T15:07:20.044Z,24.70
2019-01-23T15:09:47.614Z,26.07
2019-01-23T15:12:19.322Z,26.43
2019-01-23T15:14:48.257Z,27.47
2019-01-23T15:17:18.018Z,28.40
2019-01-23T15:19:46.678Z,27.90
2019-01-23T15:22:15.996Z,29.17
2019-01-23T15:24:44.131Z,29.03
2019-01-23T15:27:13.039Z,29.37
2019-01-23T15:29:40.590Z,31.03
2019-01-23T15:32:08.172Z,32.90
2019-01-23T15:34:35.728Z,30.30
2019-01-23T15:37:03.309Z,31.70
2019-01-23T15:39:31.878Z,32.93
2019-01-23T15:42:01.037Z,35.30
2019-01-23T15:44:29.889Z,36.00
2019-01-23T15:47:00.029Z,36.43
2019-01-23T15:49:29.841Z,39.47
2019-01-23T15:51:58.850Z,35.80
2019-01-23T15:54:28.473Z,36.57
2019-01-23T15:56:58.496Z,38.17
2019-01-23T15:59:27.818Z,38.63
2019-01-23T16:01:57.480Z,40.90
2019-01-23T16:04:26.563Z,38.60
2019-01-23T16:06:57.038Z,41.43
2019-01-23T16:09:26.417Z,39.80
2019-01-23T16:11:56.046Z,41.53
2019-01-23T16:14:25.828Z,42.00
2019-01-23T16:16:55.008Z,45.33
2019-01-23T16:19:24.407Z,46.87
2019-01-23T16:21:53.481Z,44.47
2019-01-23T16:24:22.993Z,49.17
2019-01-23T16:26:52.264Z,51.03
2019-01-23T16:29:21.193Z,48.70
2019-01-23T16:31:51.809Z,45.43
2019-01-23T16:34:21.998Z,45.53
2019-01-23T16:36:51.482Z,48.13
2019-01-23T16:39:20.560Z,52.23
2019-01-23T16:41:48.943Z,51.53
2019-01-23T16:44:19.484Z,47.30
2019-01-23T16:46:49.999Z,47.03
2019-01-23T16:49:19.805Z,45.30
2019-01-23T16:51:51.405Z,50.30
2019-01-23T16:54:17.643Z,52.03
2019-01-23T16:56:46.666Z,53.27
2019-01-23T16:59:17.046Z,48.30
2019-01-23T17:01:46.398Z,48.47
2019-01-23T17:04:15.850Z,48.93
2019-01-23T17:06:44.970Z,50.80
2019-01-23T17:09:15.330Z,51.37
2019-01-23T17:11:45.559Z,51.50
2019-01-23T17:14:14.196Z,53.83
2019-01-23T17:16:41.738Z,54.30
2019-01-23T17:19:09.312Z,51.40
2019-01-23T17:21:36.860Z,51.40
2019-01-23T17:24:04.444Z,55.50
2019-01-23T17:26:31.996Z,56.00
2019-01-23T17:29:00.084Z,53.40
2019-01-23T17:31:29.468Z,54.33
2019-01-23T17:33:57.189Z,58.53
2019-01-23T17:36:24.769Z,55.57
2019-01-23T17:38:52.312Z,54.70
2019-01-23T17:41:19.870Z,55.33
2019-01-23T17:43:47.453Z,56.70
2019-01-23T17:46:15.028Z,56.20
2019-01-23T17:48:43.372Z,57.27
2019-01-23T17:51:10.919Z,54.77
2019-01-23T17:53:38.467Z,56.17
2019-01-23T17:56:06.048Z,54.17
2019-01-23T17:58:33.596Z,56.00
2019-01-23T18:01:01.301Z,52.40
2019-01-23T18:03:29.628Z,57.80
2019-01-23T18:05:57.212Z,56.70
2019-01-23T18:08:24.800Z,53.23
2019-01-23T18:10:52.400Z,54.90
2019-01-23T18:13:19.972Z,55.77
2019-01-23T18:15:47.550Z,58.60
2019-01-23T18:18:15.095Z,53.00
2019-01-23T18:20:42.828Z,50.67
2019-01-23T18:23:10.404Z,56.10
2019-01-23T18:25:37.947Z,50.63
2019-01-23T18:28:05.520Z,51.40
2019-01-23T18:30:36.645Z,55.97
2019-01-23T18:33:04.228Z,51.00
2019-01-23T18:38:43.548Z,57.90
2019-01-23T18:41:18.384Z,56.90
2019-01-23T18:43:50.758Z,54.23
2019-01-23T18:49:44.900Z,58.75
2019-01-23T18:52:13.605Z,54.30
2019-01-23T18:54:41.416Z,53.30
2019-01-23T18:57:09.740Z,53.03
2019-01-23T18:59:37.421Z,51.23
2019-01-23T19:02:05.000Z,55.53
2019-01-23T19:04:32.562Z,54.50
2019-01-23T19:07:00.523Z,50.90
2019-01-23T19:09:28.116Z,52.27
2019-01-23T19:11:56.037Z,52.67
2019-01-23T19:14:24.489Z,51.97
2019-01-23T19:16:51.344Z,51.30
2019-01-23T19:19:19.319Z,52.10
2019-01-23T19:21:46.915Z,50.90
2019-01-23T19:24:14.489Z,52.33
2019-01-23T19:26:42.805Z,51.20
2019-01-23T19:29:10.377Z,49.80
2019-01-23T19:31:38.440Z,53.50
2019-01-23T19:34:06.038Z,52.83
2019-01-23T19:36:33.728Z,49.80
2019-01-23T19:39:01.296Z,50.40
2019-01-23T19:41:29.121Z,52.00
2019-01-23T19:43:57.468Z,49.40
2019-01-23T19:46:25.028Z,56.50
2019-01-23T19:48:52.597Z,50.07
2019-01-23T19:51:20.165Z,50.10
2019-01-23T19:53:47.716Z,47.97
2019-01-23T19:56:15.289Z,49.73
2019-01-23T19:58:42.842Z,48.53
2019-01-23T20:01:10.432Z,48.10
2019-01-23T20:03:37.988Z,50.43
2019-01-23T20:06:05.878Z,49.83
2019-01-23T20:08:33.452Z,50.70
2019-01-23T20:11:01.031Z,48.87
2019-01-23T20:13:28.620Z,51.00
2019-01-23T20:15:56.168Z,55.30
2019-01-23T20:18:23.746Z,52.60
2019-01-23T20:20:52.126Z,51.70
2019-01-23T20:23:19.889Z,52.83
2019-01-23T20:25:47.484Z,51.37
2019-01-23T20:28:15.071Z,54.67
2019-01-23T20:30:42.621Z,51.27
2019-01-23T20:33:10.182Z,53.87
2019-01-23T20:35:37.765Z,50.70
2019-01-23T20:38:06.077Z,49.10
2019-01-23T20:40:33.664Z,50.27
2019-01-23T20:43:01.220Z,53.30
2019-01-23T20:45:28.843Z,52.50
2019-01-23T20:47:56.396Z,52.50
2019-01-23T20:50:23.953Z,56.90
2019-01-23T20:52:52.508Z,55.90
2019-01-23T20:55:20.064Z,54.20
2019-01-23T20:57:47.961Z,50.10
2019-01-23T21:00:17.041Z,53.47
2019-01-23T21:02:44.619Z,53.23
2019-01-23T21:05:12.643Z,50.35
2019-01-23T21:07:40.247Z,51.13
2019-01-23T21:10:08.624Z,57.70
2019-01-23T21:12:36.173Z,56.13
2019-01-23T21:15:03.758Z,54.17
2019-01-23T21:17:31.309Z,48.40
2019-01-23T21:19:58.913Z,50.27
2019-01-23T21:22:26.501Z,49.97
2019-01-23T21:24:54.268Z,51.00
2019-01-23T21:27:21.879Z,46.57
2019-01-23T21:29:49.462Z,49.00
2019-01-23T21:32:17.068Z,49.37
2019-01-23T21:34:44.625Z,52.30
2019-01-23T21:37:12.209Z,47.50
2019-01-23T21:39:39.764Z,51.80
2019-01-23T21:42:07.343Z,51.37
2019-01-23T21:44:35.657Z,50.73
2019-01-23T21:47:03.235Z,49.20
2019-01-23T21:49:30.823Z,52.47
2019-01-23T21:51:58.385Z,50.00
2019-01-23T21:54:26.695Z,48.90
2019-01-23T21:56:54.276Z,51.27
2019-01-23T21:59:21.839Z,53.07
2019-01-23T22:01:49.443Z,53.97
2019-01-23T22:04:17.037Z,53.70
2019-01-23T22:06:44.668Z,52.70
2019-01-23T22:09:12.248Z,52.90
2019-01-23T22:11:43.466Z,53.00
2019-01-23T22:14:07.433Z,52.70
2019-01-23T22:16:35.014Z,52.30
2019-01-23T22:19:02.588Z,61.67
2019-01-23T22:21:30.140Z,55.67
2019-01-23T22:26:39.791Z,53.43
2019-01-23T22:29:07.478Z,51.30
2019-01-23T22:34:09.577Z,53.83
2019-01-23T22:36:37.132Z,54.47
2019-01-23T22:39:04.722Z,55.70
2019-01-23T22:41:32.276Z,50.37
2019-01-23T22:43:59.853Z,50.83
2019-01-23T22:46:27.400Z,52.77
2019-01-23T22:48:54.951Z,53.20
2019-01-23T22:51:22.531Z,53.17
2019-01-23T22:53:50.084Z,54.53
2019-01-23T22:56:17.664Z,54.50
2019-01-23T22:58:45.214Z,51.40
2019-01-23T23:01:12.876Z,51.87
2019-01-23T23:03:40.680Z,54.23
2019-01-23T23:06:08.264Z,53.60
2019-01-23T23:08:35.820Z,57.40
2019-01-23T23:11:03.374Z,53.47
2019-01-23T23:13:30.950Z,49.73
2019-01-23T23:15:58.506Z,52.00
2019-01-23T23:18:26.089Z,59.57
2019-01-23T23:20:53.635Z,52.60
2019-01-23T23:23:22.192Z,56.40
2019-01-23T23:25:49.771Z,56.70
2019-01-23T23:28:17.348Z,50.50
2019-01-23T23:30:44.905Z,55.40
2019-01-23T23:33:12.469Z,54.10
2019-01-23T23:35:40.056Z,59.03
2019-01-23T23:38:08.368Z,58.97
2019-01-23T23:40:35.948Z,57.07
2019-01-23T23:43:03.498Z,53.63
2019-01-23T23:45:31.080Z,52.53
2019-01-23T23:47:58.633Z,49.70
2019-01-23T23:50:26.211Z,52.33
2019-01-23T23:52:53.786Z,50.97
2019-01-23T23:55:22.109Z,58.50
2019-01-23T23:57:49.660Z,52.00
